Terminal Aerodrome Forecast
Issued by NWS

Home | Current Version | Previous Version | Text Only | Print | Product List | Glossary On
Versions: 1 2 3 4 5 6 7 8 9 10 11 12 13 14 15 16 17 18 19 20 21 22 23
000
FTPA31 PHFO 211100 RRA
TAFMKK
TAF
PHMK 211141Z 2112/2212 05014G20KT P6SM VCSH SCT020 OVC035
      TEMPO 2112/2116 5SM SHRA BR SCT015 BKN020 OVC035
     FM212100 05020G28KT P6SM SCT020 BKN035
     FM220500 05014G20KT P6SM SCT020 BKN040=

USA.gov is the U.S. government's official web portal to all federal, state and local government web resources and services.